sensor_id;sensor_type;location;lat;lon;timestamp;temperature;humidity
25108;DHT22;13090;53.422;7.670;2022-11-03T00:03:44;12.90;73.80
25108;DHT22;13090;53.422;7.670;2022-11-03T00:08:46;12.90;74.00
25108;DHT22;13090;53.422;7.670;2022-11-03T00:13:48;12.90;73.90
25108;DHT22;13090;53.422;7.670;2022-11-03T00:18:52;13.00;74.00
25108;DHT22;13090;53.422;7.670;2022-11-03T00:23:54;13.00;74.10
25108;DHT22;13090;53.422;7.670;2022-11-03T00:28:57;13.00;74.00
25108;DHT22;13090;53.422;7.670;2022-11-03T00:34:02;13.00;73.90
25108;DHT22;13090;53.422;7.670;2022-11-03T00:39:05;13.10;74.00
25108;DHT22;13090;53.422;7.670;2022-11-03T00:44:07;13.00;74.00
25108;DHT22;13090;53.422;7.670;2022-11-03T00:49:11;13.00;73.90
25108;DHT22;13090;53.422;7.670;2022-11-03T00:54:13;13.10;74.00
25108;DHT22;13090;53.422;7.670;2022-11-03T00:59:15;13.10;73.90
25108;DHT22;13090;53.422;7.670;2022-11-03T01:04:19;13.10;74.00
25108;DHT22;13090;53.422;7.670;2022-11-03T01:09:22;13.10;74.10
25108;DHT22;13090;53.422;7.670;2022-11-03T01:14:26;13.10;74.10
25108;DHT22;13090;53.422;7.670;2022-11-03T01:19:30;13.10;74.20
25108;DHT22;13090;53.422;7.670;2022-11-03T01:24:33;13.10;74.20
25108;DHT22;13090;53.422;7.670;2022-11-03T01:29:35;13.10;74.20
25108;DHT22;13090;53.422;7.670;2022-11-03T01:34:39;13.00;74.10
25108;DHT22;13090;53.422;7.670;2022-11-03T01:39:41;13.00;74.30
25108;DHT22;13090;53.422;7.670;2022-11-03T01:44:46;13.00;74.40
25108;DHT22;13090;53.422;7.670;2022-11-03T01:49:53;13.00;74.40
25108;DHT22;13090;53.422;7.670;2022-11-03T01:54:57;13.00;74.50
25108;DHT22;13090;53.422;7.670;2022-11-03T02:00:01;13.00;74.20
25108;DHT22;13090;53.422;7.670;2022-11-03T02:05:06;13.00;74.40
25108;DHT22;13090;53.422;7.670;2022-11-03T02:10:08;12.90;74.60
25108;DHT22;13090;53.422;7.670;2022-11-03T02:15:13;12.90;74.90
25108;DHT22;13090;53.422;7.670;2022-11-03T02:20:21;12.90;74.90
25108;DHT22;13090;53.422;7.670;2022-11-03T02:25:42;12.80;74.90
25108;DHT22;13090;53.422;7.670;2022-11-03T02:30:51;12.80;75.40
25108;DHT22;13090;53.422;7.670;2022-11-03T02:35:59;12.80;75.30
25108;DHT22;13090;53.422;7.670;2022-11-03T02:41:07;12.70;75.40
25108;DHT22;13090;53.422;7.670;2022-11-03T02:46:11;12.70;75.50
25108;DHT22;13090;53.422;7.670;2022-11-03T02:51:15;12.70;75.40
25108;DHT22;13090;53.422;7.670;2022-11-03T02:56:20;12.70;75.70
25108;DHT22;13090;53.422;7.670;2022-11-03T03:01:29;12.60;75.90
25108;DHT22;13090;53.422;7.670;2022-11-03T03:06:36;12.60;76.00
25108;DHT22;13090;53.422;7.670;2022-11-03T03:11:44;12.60;76.10
25108;DHT22;13090;53.422;7.670;2022-11-03T03:16:52;12.60;76.10
25108;DHT22;13090;53.422;7.670;2022-11-03T03:22:02;12.60;76.00
25108;DHT22;13090;53.422;7.670;2022-11-03T03:27:13;12.60;76.20
25108;DHT22;13090;53.422;7.670;2022-11-03T03:32:20;12.60;76.00
25108;DHT22;13090;53.422;7.670;2022-11-03T03:37:23;12.60;76.10
25108;DHT22;13090;53.422;7.670;2022-11-03T03:42:30;12.50;76.20
25108;DHT22;13090;53.422;7.670;2022-11-03T03:47:34;12.50;76.20
25108;DHT22;13090;53.422;7.670;2022-11-03T03:52:36;12.50;76.30
25108;DHT22;13090;53.422;7.670;2022-11-03T03:57:40;12.50;76.40
25108;DHT22;13090;53.422;7.670;2022-11-03T04:02:42;12.50;76.50
25108;DHT22;13090;53.422;7.670;2022-11-03T04:07:44;12.50;76.50
25108;DHT22;13090;53.422;7.670;2022-11-03T04:12:49;12.50;76.60
25108;DHT22;13090;53.422;7.670;2022-11-03T04:17:51;12.50;76.70
25108;DHT22;13090;53.422;7.670;2022-11-03T04:22:54;12.60;76.60
25108;DHT22;13090;53.422;7.670;2022-11-03T04:27:57;12.60;76.60
25108;DHT22;13090;53.422;7.670;2022-11-03T04:33:00;12.60;76.90
25108;DHT22;13090;53.422;7.670;2022-11-03T04:38:07;12.60;76.60
25108;DHT22;13090;53.422;7.670;2022-11-03T04:43:13;12.60;76.60
25108;DHT22;13090;53.422;7.670;2022-11-03T04:48:18;12.60;76.60
25108;DHT22;13090;53.422;7.670;2022-11-03T04:53:22;12.60;76.60
25108;DHT22;13090;53.422;7.670;2022-11-03T04:58:28;12.60;76.80
25108;DHT22;13090;53.422;7.670;2022-11-03T05:03:34;12.60;76.90
25108;DHT22;13090;53.422;7.670;2022-11-03T05:08:37;12.60;76.90
25108;DHT22;13090;53.422;7.670;2022-11-03T05:13:41;12.60;76.90
25108;DHT22;13090;53.422;7.670;2022-11-03T05:18:46;12.60;77.00
25108;DHT22;13090;53.422;7.670;2022-11-03T05:23:51;12.60;77.00
25108;DHT22;13090;53.422;7.670;2022-11-03T05:28:59;12.60;77.20
25108;DHT22;13090;53.422;7.670;2022-11-03T05:39:34;12.60;77.20
25108;DHT22;13090;53.422;7.670;2022-11-03T05:44:39;12.60;77.10
25108;DHT22;13090;53.422;7.670;2022-11-03T05:49:42;12.60;77.30
25108;DHT22;13090;53.422;7.670;2022-11-03T05:54:44;12.60;77.20
25108;DHT22;13090;53.422;7.670;2022-11-03T05:59:49;12.60;77.20
25108;DHT22;13090;53.422;7.670;2022-11-03T06:04:52;12.60;77.20
25108;DHT22;13090;53.422;7.670;2022-11-03T06:09:54;12.60;77.20
25108;DHT22;13090;53.422;7.670;2022-11-03T06:14:58;12.60;77.20
25108;DHT22;13090;53.422;7.670;2022-11-03T06:20:00;12.60;77.30
25108;DHT22;13090;53.422;7.670;2022-11-03T06:25:22;12.60;77.40
25108;DHT22;13090;53.422;7.670;2022-11-03T06:30:31;12.50;77.70
25108;DHT22;13090;53.422;7.670;2022-11-03T06:35:34;12.50;77.60
25108;DHT22;13090;53.422;7.670;2022-11-03T06:40:36;12.50;77.60
25108;DHT22;13090;53.422;7.670;2022-11-03T06:45:47;12.50;77.80
25108;DHT22;13090;53.422;7.670;2022-11-03T06:50:50;12.50;78.10
25108;DHT22;13090;53.422;7.670;2022-11-03T06:55:53;12.50;78.10
25108;DHT22;13090;53.422;7.670;2022-11-03T07:01:00;12.60;78.20
25108;DHT22;13090;53.422;7.670;2022-11-03T07:06:14;12.60;78.20
25108;DHT22;13090;53.422;7.670;2022-11-03T07:11:20;12.70;78.40
25108;DHT22;13090;53.422;7.670;2022-11-03T07:16:28;12.80;78.40
25108;DHT22;13090;53.422;7.670;2022-11-03T07:21:36;12.80;78.40
25108;DHT22;13090;53.422;7.670;2022-11-03T07:26:39;12.90;78.50
25108;DHT22;13090;53.422;7.670;2022-11-03T07:31:42;13.00;78.50
25108;DHT22;13090;53.422;7.670;2022-11-03T07:36:45;13.10;78.50
25108;DHT22;13090;53.422;7.670;2022-11-03T07:41:55;13.30;78.30
25108;DHT22;13090;53.422;7.670;2022-11-03T07:46:58;13.40;78.20
25108;DHT22;13090;53.422;7.670;2022-11-03T07:52:01;13.50;78.10
25108;DHT22;13090;53.422;7.670;2022-11-03T07:57:05;13.60;78.00
25108;DHT22;13090;53.422;7.670;2022-11-03T08:02:23;13.70;77.80
25108;DHT22;13090;53.422;7.670;2022-11-03T08:07:27;13.80;77.80
25108;DHT22;13090;53.422;7.670;2022-11-03T08:12:29;13.90;77.70
25108;DHT22;13090;53.422;7.670;2022-11-03T08:17:33;14.10;77.80
25108;DHT22;13090;53.422;7.670;2022-11-03T08:22:36;14.20;77.40
25108;DHT22;13090;53.422;7.670;2022-11-03T08:27:38;14.40;77.00
25108;DHT22;13090;53.422;7.670;2022-11-03T08:32:42;14.50;76.90
25108;DHT22;13090;53.422;7.670;2022-11-03T08:37:44;14.50;76.70
25108;DHT22;13090;53.422;7.670;2022-11-03T08:42:46;14.60;76.70
25108;DHT22;13090;53.422;7.670;2022-11-03T08:47:50;14.60;76.70
25108;DHT22;13090;53.422;7.670;2022-11-03T08:52:52;14.70;76.90
25108;DHT22;13090;53.422;7.670;2022-11-03T08:57:55;14.70;77.00
25108;DHT22;13090;53.422;7.670;2022-11-03T09:02:58;14.80;77.00
25108;DHT22;13090;53.422;7.670;2022-11-03T09:08:01;15.00;77.10
25108;DHT22;13090;53.422;7.670;2022-11-03T09:13:23;15.20;77.30
25108;DHT22;13090;53.422;7.670;2022-11-03T09:18:26;15.40;77.30
25108;DHT22;13090;53.422;7.670;2022-11-03T09:23:29;15.70;76.80
25108;DHT22;13090;53.422;7.670;2022-11-03T09:28:31;16.00;76.30
25108;DHT22;13090;53.422;7.670;2022-11-03T09:33:35;16.10;75.50
25108;DHT22;13090;53.422;7.670;2022-11-03T09:38:37;16.20;75.00
25108;DHT22;13090;53.422;7.670;2022-11-03T09:43:39;16.20;74.70
25108;DHT22;13090;53.422;7.670;2022-11-03T09:48:43;16.10;74.60
25108;DHT22;13090;53.422;7.670;2022-11-03T09:53:45;16.10;74.80
25108;DHT22;13090;53.422;7.670;2022-11-03T09:58:48;16.10;75.10
25108;DHT22;13090;53.422;7.670;2022-11-03T10:03:58;16.10;75.10
25108;DHT22;13090;53.422;7.670;2022-11-03T10:09:01;16.20;75.10
25108;DHT22;13090;53.422;7.670;2022-11-03T10:14:04;16.20;75.00
25108;DHT22;13090;53.422;7.670;2022-11-03T10:19:11;16.30;74.90
25108;DHT22;13090;53.422;7.670;2022-11-03T10:24:14;16.30;75.00
25108;DHT22;13090;53.422;7.670;2022-11-03T10:29:18;16.30;75.00
25108;DHT22;13090;53.422;7.670;2022-11-03T10:34:32;16.30;75.10
25108;DHT22;13090;53.422;7.670;2022-11-03T10:39:34;16.30;75.20
25108;DHT22;13090;53.422;7.670;2022-11-03T10:44:37;16.40;76.20
25108;DHT22;13090;53.422;7.670;2022-11-03T10:49:40;16.50;75.40
25108;DHT22;13090;53.422;7.670;2022-11-03T10:54:45;16.70;75.70
25108;DHT22;13090;53.422;7.670;2022-11-03T10:59:49;17.10;76.10
25108;DHT22;13090;53.422;7.670;2022-11-03T11:04:56;17.70;76.50
25108;DHT22;13090;53.422;7.670;2022-11-03T11:10:05;18.20;73.20
25108;DHT22;13090;53.422;7.670;2022-11-03T11:15:36;18.30;70.90
25108;DHT22;13090;53.422;7.670;2022-11-03T11:20:41;18.20;69.80
25108;DHT22;13090;53.422;7.670;2022-11-03T11:26:05;18.00;70.60
25108;DHT22;13090;53.422;7.670;2022-11-03T11:31:37;17.90;70.90
25108;DHT22;13090;53.422;7.670;2022-11-03T11:36:42;17.80;70.70
25108;DHT22;13090;53.422;7.670;2022-11-03T11:42:07;17.70;71.00
25108;DHT22;13090;53.422;7.670;2022-11-03T11:47:41;17.60;70.50
25108;DHT22;13090;53.422;7.670;2022-11-03T11:52:49;17.50;70.50
25108;DHT22;13090;53.422;7.670;2022-11-03T11:57:54;17.50;71.50
25108;DHT22;13090;53.422;7.670;2022-11-03T12:02:57;17.40;70.80
25108;DHT22;13090;53.422;7.670;2022-11-03T12:08:16;17.40;70.40
25108;DHT22;13090;53.422;7.670;2022-11-03T12:13:43;17.40;70.00
25108;DHT22;13090;53.422;7.670;2022-11-03T12:18:45;17.30;70.30
25108;DHT22;13090;53.422;7.670;2022-11-03T12:23:53;17.30;70.50
25108;DHT22;13090;53.422;7.670;2022-11-03T12:28:55;17.30;70.20
25108;DHT22;13090;53.422;7.670;2022-11-03T12:33:57;17.30;70.20
25108;DHT22;13090;53.422;7.670;2022-11-03T12:39:01;17.30;70.20
25108;DHT22;13090;53.422;7.670;2022-11-03T12:44:04;17.30;70.00
25108;DHT22;13090;53.422;7.670;2022-11-03T12:49:06;17.30;69.70
25108;DHT22;13090;53.422;7.670;2022-11-03T12:54:10;17.30;69.40
25108;DHT22;13090;53.422;7.670;2022-11-03T12:59:12;17.30;69.40
25108;DHT22;13090;53.422;7.670;2022-11-03T13:04:14;17.30;69.20
25108;DHT22;13090;53.422;7.670;2022-11-03T13:09:18;17.30;68.70
25108;DHT22;13090;53.422;7.670;2022-11-03T13:14:20;17.30;68.70
25108;DHT22;13090;53.422;7.670;2022-11-03T13:19:23;17.30;68.90
25108;DHT22;13090;53.422;7.670;2022-11-03T13:24:26;17.20;69.10
25108;DHT22;13090;53.422;7.670;2022-11-03T13:29:29;17.20;68.70
25108;DHT22;13090;53.422;7.670;2022-11-03T13:34:36;17.10;68.90
25108;DHT22;13090;53.422;7.670;2022-11-03T13:39:40;17.10;68.80
25108;DHT22;13090;53.422;7.670;2022-11-03T13:44:42;17.10;68.80
25108;DHT22;13090;53.422;7.670;2022-11-03T13:49:44;17.00;68.70
25108;DHT22;13090;53.422;7.670;2022-11-03T13:55:08;17.00;68.90
25108;DHT22;13090;53.422;7.670;2022-11-03T14:00:31;16.90;68.70
25108;DHT22;13090;53.422;7.670;2022-11-03T14:05:34;16.90;68.70
25108;DHT22;13090;53.422;7.670;2022-11-03T14:10:37;16.80;69.00
25108;DHT22;13090;53.422;7.670;2022-11-03T14:15:40;16.70;69.00
25108;DHT22;13090;53.422;7.670;2022-11-03T14:20:42;16.60;69.20
25108;DHT22;13090;53.422;7.670;2022-11-03T14:25:46;16.60;69.30
25108;DHT22;13090;53.422;7.670;2022-11-03T14:31:07;16.60;69.00
25108;DHT22;13090;53.422;7.670;2022-11-03T14:36:09;16.50;69.00
25108;DHT22;13090;53.422;7.670;2022-11-03T14:41:13;16.40;68.90
25108;DHT22;13090;53.422;7.670;2022-11-03T14:46:15;16.40;68.90
25108;DHT22;13090;53.422;7.670;2022-11-03T14:51:18;16.30;69.00
25108;DHT22;13090;53.422;7.670;2022-11-03T14:56:21;16.30;69.10
25108;DHT22;13090;53.422;7.670;2022-11-03T15:01:24;16.20;69.30
25108;DHT22;13090;53.422;7.670;2022-11-03T15:06:26;16.20;70.10
25108;DHT22;13090;53.422;7.670;2022-11-03T15:11:33;16.10;69.30
25108;DHT22;13090;53.422;7.670;2022-11-03T15:16:37;16.10;69.60
25108;DHT22;13090;53.422;7.670;2022-11-03T15:21:40;16.00;69.70
25108;DHT22;13090;53.422;7.670;2022-11-03T15:26:44;15.90;70.00
25108;DHT22;13090;53.422;7.670;2022-11-03T15:31:48;15.90;70.30
25108;DHT22;13090;53.422;7.670;2022-11-03T15:36:50;15.80;70.50
25108;DHT22;13090;53.422;7.670;2022-11-03T15:41:54;15.70;70.70
25108;DHT22;13090;53.422;7.670;2022-11-03T15:46:56;15.70;71.10
25108;DHT22;13090;53.422;7.670;2022-11-03T15:51:59;15.70;71.40
25108;DHT22;13090;53.422;7.670;2022-11-03T15:57:03;15.60;71.60
25108;DHT22;13090;53.422;7.670;2022-11-03T16:02:05;15.60;71.70
25108;DHT22;13090;53.422;7.670;2022-11-03T16:07:32;15.50;71.90
25108;DHT22;13090;53.422;7.670;2022-11-03T16:12:44;15.50;72.40
25108;DHT22;13090;53.422;7.670;2022-11-03T16:17:49;15.40;72.60
25108;DHT22;13090;53.422;7.670;2022-11-03T16:22:53;15.40;72.70
25108;DHT22;13090;53.422;7.670;2022-11-03T16:27:56;15.40;73.60
25108;DHT22;13090;53.422;7.670;2022-11-03T16:32:59;15.30;73.00
25108;DHT22;13090;53.422;7.670;2022-11-03T16:38:01;15.30;73.00
25108;DHT22;13090;53.422;7.670;2022-11-03T16:43:05;15.30;73.40
25108;DHT22;13090;53.422;7.670;2022-11-03T16:48:07;15.30;73.40
25108;DHT22;13090;53.422;7.670;2022-11-03T16:53:10;15.20;73.50
25108;DHT22;13090;53.422;7.670;2022-11-03T16:58:14;15.20;73.70
25108;DHT22;13090;53.422;7.670;2022-11-03T17:03:16;15.20;74.40
25108;DHT22;13090;53.422;7.670;2022-11-03T17:08:18;15.20;73.90
25108;DHT22;13090;53.422;7.670;2022-11-03T17:13:42;15.20;74.00
25108;DHT22;13090;53.422;7.670;2022-11-03T17:18:44;15.10;74.00
25108;DHT22;13090;53.422;7.670;2022-11-03T17:23:47;15.20;74.20
25108;DHT22;13090;53.422;7.670;2022-11-03T17:28:51;15.20;74.20
25108;DHT22;13090;53.422;7.670;2022-11-03T17:33:54;15.20;74.30
25108;DHT22;13090;53.422;7.670;2022-11-03T17:38:56;15.20;74.50
25108;DHT22;13090;53.422;7.670;2022-11-03T17:44:00;15.20;74.40
25108;DHT22;13090;53.422;7.670;2022-11-03T17:49:02;15.20;74.20
25108;DHT22;13090;53.422;7.670;2022-11-03T17:54:06;15.20;74.20
25108;DHT22;13090;53.422;7.670;2022-11-03T17:59:16;15.20;74.30
25108;DHT22;13090;53.422;7.670;2022-11-03T18:04:20;15.20;74.10
25108;DHT22;13090;53.422;7.670;2022-11-03T18:09:23;15.30;74.20
25108;DHT22;13090;53.422;7.670;2022-11-03T18:14:28;15.30;74.10
25108;DHT22;13090;53.422;7.670;2022-11-03T18:19:31;15.30;74.10
25108;DHT22;13090;53.422;7.670;2022-11-03T18:24:34;15.30;74.10
25108;DHT22;13090;53.422;7.670;2022-11-03T18:29:38;15.30;74.00
25108;DHT22;13090;53.422;7.670;2022-11-03T18:34:41;15.40;74.10
25108;DHT22;13090;53.422;7.670;2022-11-03T18:39:43;15.30;74.00
25108;DHT22;13090;53.422;7.670;2022-11-03T18:44:47;15.30;74.00
25108;DHT22;13090;53.422;7.670;2022-11-03T18:49:49;15.20;74.00
25108;DHT22;13090;53.422;7.670;2022-11-03T18:54:51;15.10;74.20
25108;DHT22;13090;53.422;7.670;2022-11-03T18:59:55;15.00;74.40
25108;DHT22;13090;53.422;7.670;2022-11-03T19:04:57;14.90;74.80
25108;DHT22;13090;53.422;7.670;2022-11-03T19:10:00;14.90;76.10
25108;DHT22;13090;53.422;7.670;2022-11-03T19:15:09;14.80;75.50
25108;DHT22;13090;53.422;7.670;2022-11-03T19:20:14;14.80;75.90
25108;DHT22;13090;53.422;7.670;2022-11-03T19:25:16;14.70;76.30
25108;DHT22;13090;53.422;7.670;2022-11-03T19:30:25;14.50;76.30
25108;DHT22;13090;53.422;7.670;2022-11-03T19:35:32;14.40;77.40
25108;DHT22;13090;53.422;7.670;2022-11-03T19:40:35;14.30;78.00
25108;DHT22;13090;53.422;7.670;2022-11-03T19:45:39;14.10;78.00
25108;DHT22;13090;53.422;7.670;2022-11-03T19:50:41;14.10;78.70
25108;DHT22;13090;53.422;7.670;2022-11-03T19:55:44;13.90;78.80
25108;DHT22;13090;53.422;7.670;2022-11-03T20:00:49;13.90;79.30
25108;DHT22;13090;53.422;7.670;2022-11-03T20:05:53;13.80;80.60
25108;DHT22;13090;53.422;7.670;2022-11-03T20:10:56;13.70;80.60
25108;DHT22;13090;53.422;7.670;2022-11-03T20:16:00;13.60;82.70
25108;DHT22;13090;53.422;7.670;2022-11-03T20:21:03;13.60;83.00
25108;DHT22;13090;53.422;7.670;2022-11-03T20:26:10;13.50;82.50
25108;DHT22;13090;53.422;7.670;2022-11-03T20:31:17;13.50;84.20
25108;DHT22;13090;53.422;7.670;2022-11-03T20:36:19;13.40;83.70
25108;DHT22;13090;53.422;7.670;2022-11-03T20:41:21;13.40;83.70
25108;DHT22;13090;53.422;7.670;2022-11-03T20:46:27;13.40;83.80
25108;DHT22;13090;53.422;7.670;2022-11-03T20:51:32;13.40;84.70
25108;DHT22;13090;53.422;7.670;2022-11-03T20:56:35;13.40;84.00
25108;DHT22;13090;53.422;7.670;2022-11-03T21:01:40;13.40;84.00
25108;DHT22;13090;53.422;7.670;2022-11-03T21:06:44;13.40;84.30
25108;DHT22;13090;53.422;7.670;2022-11-03T21:11:55;13.40;84.60
25108;DHT22;13090;53.422;7.670;2022-11-03T21:17:01;13.50;84.20
25108;DHT22;13090;53.422;7.670;2022-11-03T21:22:12;13.60;84.70
25108;DHT22;13090;53.422;7.670;2022-11-03T21:27:35;13.60;84.50
25108;DHT22;13090;53.422;7.670;2022-11-03T21:32:44;13.60;83.90
25108;DHT22;13090;53.422;7.670;2022-11-03T21:37:46;13.70;84.00
25108;DHT22;13090;53.422;7.670;2022-11-03T21:42:49;13.70;83.80
25108;DHT22;13090;53.422;7.670;2022-11-03T21:47:53;13.70;84.00
25108;DHT22;13090;53.422;7.670;2022-11-03T21:52:55;13.80;84.00
25108;DHT22;13090;53.422;7.670;2022-11-03T21:57:57;13.80;84.70
25108;DHT22;13090;53.422;7.670;2022-11-03T22:03:01;13.80;83.80
25108;DHT22;13090;53.422;7.670;2022-11-03T22:08:06;13.80;83.60
25108;DHT22;13090;53.422;7.670;2022-11-03T22:13:08;13.90;83.80
25108;DHT22;13090;53.422;7.670;2022-11-03T22:18:12;13.90;83.70
25108;DHT22;13090;53.422;7.670;2022-11-03T22:23:15;13.90;83.80
25108;DHT22;13090;53.422;7.670;2022-11-03T22:28:17;14.00;83.90
25108;DHT22;13090;53.422;7.670;2022-11-03T22:33:21;14.00;83.50
25108;DHT22;13090;53.422;7.670;2022-11-03T22:38:23;14.10;83.90
25108;DHT22;13090;53.422;7.670;2022-11-03T22:43:26;14.10;83.80
25108;DHT22;13090;53.422;7.670;2022-11-03T22:48:30;14.10;83.90
25108;DHT22;13090;53.422;7.670;2022-11-03T22:53:34;14.10;83.70
25108;DHT22;13090;53.422;7.670;2022-11-03T22:58:36;14.10;83.60
25108;DHT22;13090;53.422;7.670;2022-11-03T23:03:41;14.20;83.40
25108;DHT22;13090;53.422;7.670;2022-11-03T23:08:45;14.20;83.70
25108;DHT22;13090;53.422;7.670;2022-11-03T23:13:51;14.20;83.40
25108;DHT22;13090;53.422;7.670;2022-11-03T23:18:56;14.20;83.50
25108;DHT22;13090;53.422;7.670;2022-11-03T23:23:59;14.30;83.50
25108;DHT22;13090;53.422;7.670;2022-11-03T23:29:01;14.20;83.20
25108;DHT22;13090;53.422;7.670;2022-11-03T23:34:05;14.20;83.30
25108;DHT22;13090;53.422;7.670;2022-11-03T23:39:11;14.20;83.40
25108;DHT22;13090;53.422;7.670;2022-11-03T23:44:15;14.10;83.70
25108;DHT22;13090;53.422;7.670;2022-11-03T23:49:18;14.10;83.80
25108;DHT22;13090;53.422;7.670;2022-11-03T23:54:20;14.00;84.40
25108;DHT22;13090;53.422;7.670;2022-11-03T23:59:23;14.00;85.10
